Time;durP1;ratioP1;P1;durP2;ratioP2;P2;SDS_P1;SDS_P2;PMS_P1;PMS_P2;Temp;Humidity;BMP_temperature;BMP_pressure;BME280_temperature;BME280_humidity;BME280_pressure;Samples;Min_cycle;Max_cycle;Signal;HPM_P1;HPM_P2
2023/06/02 00:01:24;;;;;;;11.52;8.85;;;26.00;99.90;;;;;;5052794;28;20485;-63
2023/06/02 00:03:53;;;;;;;10.82;9.63;;;26.00;99.90;;;;;;5052212;28;20485;-62
2023/06/02 00:06:19;;;;;;;10.43;8.88;;;25.90;99.90;;;;;;5046609;28;20014;-62
2023/06/02 00:08:45;;;;;;;13.02;9.52;;;25.90;99.90;;;;;;5052138;28;20094;-63
2023/06/02 00:11:12;;;;;;;9.75;8.68;;;25.80;99.90;;;;;;5049728;28;20032;-62
2023/06/02 00:13:39;;;;;;;11.02;9.05;;;25.90;99.90;;;;;;5051765;28;20036;-63
2023/06/02 00:16:06;;;;;;;9.88;8.25;;;25.90;99.90;;;;;;5052188;28;20021;-62
2023/06/02 00:18:33;;;;;;;9.68;8.18;;;25.80;99.90;;;;;;5052809;28;20536;-62
2023/06/02 00:21:01;;;;;;;8.23;7.43;;;25.90;99.90;;;;;;5043789;28;20013;-63
2023/06/02 00:23:29;;;;;;;10.73;8.15;;;26.00;99.90;;;;;;5053128;28;20041;-63
2023/06/02 00:25:55;;;;;;;8.23;7.43;;;26.00;99.90;;;;;;5050103;28;20017;-63
2023/06/02 00:28:21;;;;;;;9.43;7.88;;;26.00;99.90;;;;;;5052856;28;20114;-63
2023/06/02 00:30:47;;;;;;;10.27;8.95;;;26.00;99.90;;;;;;5050110;28;20037;-63
2023/06/02 00:33:13;;;;;;;8.73;7.32;;;25.90;99.90;;;;;;5052965;28;20040;-63
2023/06/02 00:35:38;;;;;;;7.32;6.57;;;25.80;99.90;;;;;;5046474;28;20018;-63
2023/06/02 00:38:04;;;;;;;6.30;5.60;;;25.60;99.90;;;;;;5052657;28;20052;-62
2023/06/02 00:40:31;;;;;;;5.55;4.75;;;25.50;99.90;;;;;;5051034;28;20037;-63
2023/06/02 00:42:57;;;;;;;5.25;4.75;;;25.60;99.90;;;;;;5038931;28;20028;-63
2023/06/02 00:45:23;;;;;;;5.20;4.00;;;25.60;99.90;;;;;;5050552;28;20033;-64
2023/06/02 00:47:48;;;;;;;4.40;4.00;;;25.40;99.90;;;;;;5051556;28;20037;-62
2023/06/02 00:50:14;;;;;;;4.63;3.22;;;25.40;99.90;;;;;;5047726;28;20168;-63
2023/06/02 00:52:41;;;;;;;8.93;4.32;;;25.40;99.90;;;;;;5052702;28;20490;-63
2023/06/02 00:55:07;;;;;;;5.35;3.85;;;25.30;99.90;;;;;;5050805;28;20075;-63
2023/06/02 00:57:33;;;;;;;7.30;3.72;;;25.40;99.90;;;;;;5052650;28;20033;-63
2023/06/02 01:00:00;;;;;;;4.63;3.50;;;25.30;99.90;;;;;;5050779;28;20020;-63
2023/06/02 01:02:26;;;;;;;4.22;3.78;;;25.20;99.90;;;;;;5052674;28;20032;-63
2023/06/02 01:04:57;;;;;;;3.50;3.20;;;25.10;99.90;;;;;;5049946;28;20385;-63
2023/06/02 01:07:25;;;;;;;4.78;4.00;;;25.20;99.90;;;;;;5044050;28;20041;-63
2023/06/02 01:09:56;;;;;;;3.72;3.42;;;25.20;99.90;;;;;;5049835;28;20116;-63
2023/06/02 01:12:23;;;;;;;3.45;3.15;;;25.20;99.90;;;;;;5050100;28;20482;-63
2023/06/02 01:14:48;;;;;;;4.28;3.88;;;25.20;99.90;;;;;;5051342;28;20080;-62
2023/06/02 01:17:17;;;;;;;4.18;3.78;;;25.10;99.90;;;;;;5050260;28;20051;-63
2023/06/02 01:19:45;;;;;;;4.28;3.70;;;25.20;99.90;;;;;;5049059;28;20132;-63
2023/06/02 01:22:25;;;;;;;4.38;3.58;;;25.10;99.90;;;;;;5051742;28;20052;-63
2023/06/02 01:24:51;;;;;;;3.15;2.83;;;25.10;99.90;;;;;;5051152;28;20545;-63
2023/06/02 01:27:17;;;;;;;3.83;3.53;;;25.20;99.90;;;;;;5050704;28;20031;-63
2023/06/02 01:29:54;;;;;;;3.75;3.45;;;25.20;99.90;;;;;;5052038;28;20025;-63
2023/06/02 01:32:35;;;;;;;3.72;3.42;;;25.10;99.90;;;;;;5050531;28;20445;-63
2023/06/02 01:35:05;;;;;;;7.47;3.25;;;25.00;99.90;;;;;;5054405;28;20030;-63
2023/06/02 01:37:37;;;;;;;4.15;3.72;;;25.00;99.90;;;;;;5051739;28;20028;-63
2023/06/02 01:40:05;;;;;;;9.45;4.38;;;24.70;99.90;;;;;;5055760;28;20045;-63
2023/06/02 01:42:31;;;;;;;5.55;3.40;;;24.80;99.90;;;;;;5054758;28;20052;-63
2023/06/02 01:45:01;;;;;;;4.15;3.00;;;24.80;99.90;;;;;;5055893;28;20106;-63
2023/06/02 01:47:27;;;;;;;6.13;3.28;;;24.80;99.90;;;;;;5044276;28;20031;-63
2023/06/02 01:49:53;;;;;;;3.70;3.33;;;24.80;99.90;;;;;;5052567;28;20052;-63
2023/06/02 01:52:18;;;;;;;3.72;3.05;;;24.70;99.90;;;;;;5055723;28;20041;-63
2023/06/02 01:54:44;;;;;;;4.07;3.20;;;24.70;99.90;;;;;;5053242;28;20058;-63
2023/06/02 01:57:10;;;;;;;3.70;3.33;;;24.70;99.90;;;;;;5055658;28;20044;-63
2023/06/02 01:59:36;;;;;;;2.97;2.75;;;24.50;99.90;;;;;;5051530;28;20028;-63
2023/06/02 02:02:01;;;;;;;3.75;3.25;;;24.60;99.90;;;;;;5055483;28;20067;-63
2023/06/02 02:04:27;;;;;;;5.20;3.45;;;24.60;99.90;;;;;;5053380;28;20017;-63
2023/06/02 02:06:53;;;;;;;4.03;3.03;;;24.70;99.90;;;;;;5052987;28;20029;-63
2023/06/02 02:09:18;;;;;;;3.45;3.10;;;24.60;99.90;;;;;;5053339;28;20100;-63
2023/06/02 02:11:44;;;;;;;3.08;2.80;;;24.50;99.90;;;;;;5041480;28;20028;-63
2023/06/02 02:14:13;;;;;;;3.10;2.80;;;24.60;99.90;;;;;;5054161;28;20434;-63
2023/06/02 02:16:38;;;;;;;4.25;3.33;;;24.50;99.90;;;;;;5055393;28;20469;-63
2023/06/02 02:19:50;;;;;;;3.28;2.97;;;24.50;99.90;;;;;;5052520;28;20092;-63
2023/06/02 02:22:16;;;;;;;3.45;2.90;;;24.50;99.90;;;;;;5047104;28;20033;-63
2023/06/02 02:24:42;;;;;;;4.70;3.00;;;24.60;99.90;;;;;;5055296;28;20037;-63
2023/06/02 02:27:10;;;;;;;2.92;2.63;;;24.50;99.90;;;;;;5054015;28;20021;-63
2023/06/02 02:29:36;;;;;;;3.72;3.20;;;24.40;99.90;;;;;;5053932;28;20024;-63
2023/06/02 02:32:02;;;;;;;3.30;2.72;;;24.40;99.90;;;;;;5045234;28;20041;-63
2023/06/02 02:34:28;;;;;;;3.45;3.15;;;24.40;99.90;;;;;;5046450;28;20028;-63
2023/06/02 02:37:01;;;;;;;4.68;3.30;;;24.50;99.90;;;;;;5036167;28;20025;-63
2023/06/02 02:39:29;;;;;;;3.35;2.90;;;24.40;99.90;;;;;;5043653;28;20044;-63
2023/06/02 02:42:07;;;;;;;3.00;2.78;;;24.40;99.90;;;;;;5053704;28;20071;-63
2023/06/02 02:44:33;;;;;;;3.50;3.20;;;24.20;99.90;;;;;;5053550;28;20094;-63
2023/06/02 02:46:58;;;;;;;3.95;3.28;;;24.20;99.90;;;;;;5054497;28;20029;-63
2023/06/02 02:49:24;;;;;;;4.50;2.70;;;24.10;99.90;;;;;;5052317;28;20480;-63
2023/06/02 02:51:50;;;;;;;3.30;3.00;;;24.10;99.90;;;;;;5051927;28;20041;-63
2023/06/02 02:54:16;;;;;;;3.22;2.92;;;24.20;99.90;;;;;;5054584;28;20021;-63
2023/06/02 02:56:43;;;;;;;2.92;2.72;;;24.10;99.90;;;;;;5053417;28;20029;-63
2023/06/02 02:59:12;;;;;;;3.25;2.65;;;24.10;99.90;;;;;;5054222;28;20028;-63
2023/06/02 03:01:43;;;;;;;3.75;2.92;;;24.00;99.90;;;;;;5051178;28;20029;-63
2023/06/02 03:04:18;;;;;;;3.63;2.80;;;23.90;99.90;;;;;;5054657;28;20116;-63
2023/06/02 03:06:48;;;;;;;5.45;3.53;;;23.90;99.90;;;;;;5047565;28;20056;-63
2023/06/02 03:09:14;;;;;;;3.70;3.10;;;23.90;99.90;;;;;;5044226;28;20449;-63
2023/06/02 03:11:40;;;;;;;5.20;3.60;;;23.80;99.90;;;;;;5049160;28;20395;-63
2023/06/02 03:14:06;;;;;;;3.75;3.38;;;23.70;99.90;;;;;;5053031;28;20042;-63
2023/06/02 03:16:34;;;;;;;3.38;2.78;;;23.80;99.90;;;;;;5053048;28;20025;-63
2023/06/02 03:19:00;;;;;;;3.75;3.17;;;23.80;99.90;;;;;;5053237;28;20462;-63
2023/06/02 03:21:26;;;;;;;3.28;3.00;;;23.70;99.90;;;;;;5052478;28;20036;-63
2023/06/02 03:23:53;;;;;;;3.55;3.25;;;23.70;99.90;;;;;;5047487;28;20025;-63
2023/06/02 03:26:25;;;;;;;3.55;2.50;;;23.70;99.90;;;;;;5036851;28;20071;-63
2023/06/02 03:28:54;;;;;;;3.13;2.83;;;23.80;99.90;;;;;;5049478;28;20421;-63
2023/06/02 03:31:20;;;;;;;2.90;2.60;;;23.70;99.90;;;;;;5053242;28;20032;-63
2023/06/02 03:33:46;;;;;;;3.53;3.22;;;23.70;99.90;;;;;;5053721;28;20029;-63
2023/06/02 03:36:12;;;;;;;3.50;2.70;;;23.70;99.90;;;;;;5046042;28;20022;-63
2023/06/02 03:38:38;;;;;;;3.97;3.53;;;23.80;99.90;;;;;;5047074;28;20057;-63
2023/06/02 03:41:04;;;;;;;3.22;2.92;;;23.60;99.90;;;;;;5050361;28;20543;-63
2023/06/02 03:43:30;;;;;;;3.60;3.30;;;23.60;99.90;;;;;;5053858;28;20029;-63
2023/06/02 03:45:55;;;;;;;3.83;3.47;;;23.60;99.90;;;;;;5051136;28;20062;-63
2023/06/02 03:48:21;;;;;;;4.25;3.00;;;23.50;99.90;;;;;;5053288;28;20389;-63
2023/06/02 03:50:47;;;;;;;3.83;3.50;;;23.60;99.90;;;;;;5052487;28;20045;-63
2023/06/02 03:53:12;;;;;;;3.25;3.05;;;23.60;99.90;;;;;;5053537;28;20044;-63
2023/06/02 03:55:38;;;;;;;3.33;3.03;;;23.50;99.90;;;;;;5052172;28;20375;-63
2023/06/02 03:58:04;;;;;;;4.53;3.20;;;23.50;99.90;;;;;;5050214;28;20032;-63
2023/06/02 04:00:30;;;;;;;4.35;3.63;;;23.50;99.90;;;;;;5050745;28;20044;-63
2023/06/02 04:02:55;;;;;;;3.33;3.03;;;23.50;99.90;;;;;;5052147;28;20033;-63
2023/06/02 04:05:21;;;;;;;5.93;3.83;;;23.60;99.90;;;;;;5053093;28;20055;-63
2023/06/02 04:07:47;;;;;;;5.93;3.97;;;23.70;99.90;;;;;;5052700;28;20031;-63
2023/06/02 04:10:12;;;;;;;4.05;3.58;;;23.60;99.90;;;;;;5040943;28;20607;-63
2023/06/02 04:12:38;;;;;;;5.28;4.15;;;23.50;99.90;;;;;;5053275;28;20048;-63
2023/06/02 04:15:04;;;;;;;4.25;3.80;;;23.70;99.90;;;;;;5049101;28;20016;-63
2023/06/02 04:17:30;;;;;;;7.60;3.88;;;23.80;99.90;;;;;;5052965;28;20033;-63
2023/06/02 04:19:55;;;;;;;6.97;4.95;;;23.80;99.90;;;;;;5047982;28;20029;-63
2023/06/02 04:22:30;;;;;;;5.35;4.30;;;23.80;99.90;;;;;;5043927;28;20483;-63
2023/06/02 04:24:55;;;;;;;5.22;4.32;;;23.80;99.90;;;;;;5046222;28;20100;-63
2023/06/02 04:27:21;;;;;;;7.15;4.75;;;23.80;99.90;;;;;;5041719;28;20053;-63
2023/06/02 04:29:47;;;;;;;7.03;4.18;;;23.90;99.90;;;;;;5050141;28;20025;-63
2023/06/02 04:32:12;;;;;;;5.72;4.90;;;23.80;99.90;;;;;;5052864;28;20040;-63
2023/06/02 04:34:38;;;;;;;6.20;4.38;;;23.80;99.90;;;;;;5051656;28;20033;-63
2023/06/02 04:37:05;;;;;;;6.95;4.78;;;23.90;99.90;;;;;;5053062;28;20105;-63
2023/06/02 04:39:31;;;;;;;9.10;5.53;;;23.90;99.90;;;;;;5051353;28;20441;-63
2023/06/02 04:41:57;;;;;;;6.13;5.60;;;23.80;99.90;;;;;;5051184;28;20506;-63
2023/06/02 04:44:23;;;;;;;6.72;5.70;;;23.70;99.90;;;;;;5052835;28;20056;-63
2023/06/02 04:46:49;;;;;;;8.02;7.28;;;23.80;99.90;;;;;;5050957;28;20068;-63
2023/06/02 04:49:15;;;;;;;9.75;8.40;;;23.80;99.90;;;;;;5038068;28;20057;-63
2023/06/02 04:51:41;;;;;;;8.52;7.63;;;23.80;99.90;;;;;;5052156;28;20094;-63
2023/06/02 04:54:07;;;;;;;9.57;7.68;;;23.80;99.90;;;;;;5051326;28;20017;-63
2023/06/02 04:56:35;;;;;;;9.07;7.72;;;23.80;99.90;;;;;;5051877;28;20398;-63
2023/06/02 04:59:01;;;;;;;10.25;8.55;;;23.80;99.90;;;;;;5051116;28;20498;-63
2023/06/02 05:01:28;;;;;;;10.05;8.10;;;23.80;99.90;;;;;;5048960;28;20040;-63
2023/06/02 05:03:54;;;;;;;11.00;8.63;;;23.80;99.90;;;;;;5048572;28;20021;-63
2023/06/02 05:06:20;;;;;;;8.80;8.00;;;23.80;99.90;;;;;;5055134;28;20025;-64
2023/06/02 05:08:45;;;;;;;10.35;8.85;;;23.80;99.90;;;;;;5056112;28;20386;-63
2023/06/02 05:11:11;;;;;;;10.82;8.38;;;23.70;99.90;;;;;;5053996;28;20037;-63
2023/06/02 05:13:37;;;;;;;11.40;7.80;;;23.80;99.90;;;;;;5054210;28;20486;-63
2023/06/02 05:16:03;;;;;;;9.25;8.35;;;23.80;99.90;;;;;;5055859;28;20116;-62
2023/06/02 05:18:30;;;;;;;10.13;8.73;;;23.80;99.90;;;;;;5055280;28;20394;-62
2023/06/02 05:20:55;;;;;;;11.40;8.68;;;23.80;99.90;;;;;;5054594;28;20079;-62
2023/06/02 05:23:21;;;;;;;9.60;8.68;;;23.80;99.90;;;;;;5055346;28;20417;-62
2023/06/02 05:25:49;;;;;;;8.75;7.95;;;23.80;99.90;;;;;;5056416;28;20021;-63
2023/06/02 05:28:15;;;;;;;9.57;8.68;;;23.80;99.90;;;;;;5054857;28;20108;-63
2023/06/02 05:30:41;;;;;;;8.68;7.78;;;23.80;99.90;;;;;;5053315;28;20100;-63
2023/06/02 05:33:06;;;;;;;8.63;7.82;;;23.80;99.90;;;;;;5051425;28;20032;-63
2023/06/02 05:35:32;;;;;;;11.27;9.00;;;23.80;99.90;;;;;;5042232;28;20033;-62
2023/06/02 05:37:58;;;;;;;12.00;9.45;;;23.80;99.90;;;;;;5054699;28;20024;-63
2023/06/02 05:40:23;;;;;;;8.50;7.60;;;23.80;99.90;;;;;;5054535;28;20529;-63
2023/06/02 05:42:49;;;;;;;10.80;7.30;;;23.80;99.90;;;;;;5053597;28;20029;-63
2023/06/02 05:45:15;;;;;;;8.95;8.02;;;23.80;99.90;;;;;;5053592;28;20075;-63
2023/06/02 05:48:09;;;;;;;10.10;8.60;;;23.80;99.90;;;;;;5052534;28;20036;-63
2023/06/02 05:50:35;;;;;;;8.68;7.55;;;23.80;99.90;;;;;;5053849;28;20031;-63
2023/06/02 05:53:01;;;;;;;9.10;7.53;;;23.80;99.90;;;;;;5053616;28;20045;-63
2023/06/02 05:55:26;;;;;;;8.65;7.55;;;23.80;99.90;;;;;;5042159;28;20464;-63
2023/06/02 05:57:52;;;;;;;8.20;7.45;;;23.80;99.90;;;;;;5055503;28;20029;-63
2023/06/02 06:00:18;;;;;;;8.93;7.45;;;23.80;99.90;;;;;;5052977;28;20020;-63
2023/06/02 06:02:45;;;;;;;9.23;7.45;;;23.80;99.90;;;;;;5052518;28;20374;-63
2023/06/02 06:05:11;;;;;;;8.85;7.32;;;23.80;99.90;;;;;;5048917;28;20036;-62
2023/06/02 06:07:36;;;;;;;9.45;7.50;;;23.90;99.90;;;;;;5055360;28;20025;-63
2023/06/02 06:10:02;;;;;;;9.70;7.97;;;23.90;99.90;;;;;;5052583;28;20052;-63
2023/06/02 06:12:28;;;;;;;10.23;7.53;;;23.80;99.90;;;;;;5055480;28;20040;-63
2023/06/02 06:14:53;;;;;;;8.88;8.07;;;23.80;99.90;;;;;;5053620;28;20036;-63
2023/06/02 06:17:19;;;;;;;9.27;8.32;;;23.90;99.90;;;;;;5054548;28;20029;-63
2023/06/02 06:19:44;;;;;;;8.63;7.82;;;23.90;99.90;;;;;;5052875;28;20409;-63
2023/06/02 06:22:10;;;;;;;7.75;6.97;;;23.90;99.90;;;;;;5055077;28;20036;-62
2023/06/02 06:24:36;;;;;;;8.82;7.95;;;23.90;99.90;;;;;;5053957;28;20025;-63
2023/06/02 06:27:01;;;;;;;9.18;8.27;;;23.90;99.90;;;;;;5053042;28;20029;-60
2023/06/02 06:29:27;;;;;;;9.80;8.80;;;23.90;99.90;;;;;;5054912;28;20026;-61
2023/06/02 06:31:53;;;;;;;9.30;8.32;;;23.90;99.90;;;;;;5053702;28;20132;-62
2023/06/02 06:34:19;;;;;;;8.77;7.88;;;24.00;99.90;;;;;;5054844;28;20043;-62
2023/06/02 06:36:46;;;;;;;8.20;7.32;;;24.00;99.90;;;;;;5052615;28;20025;-61
2023/06/02 06:39:18;;;;;;;8.95;7.43;;;24.00;99.90;;;;;;5042448;28;20406;-62
2023/06/02 06:41:44;;;;;;;7.57;6.88;;;24.00;99.90;;;;;;5030197;28;20095;-62
2023/06/02 06:44:10;;;;;;;10.95;7.20;;;24.00;99.90;;;;;;5032308;28;20021;-62
2023/06/02 06:46:36;;;;;;;8.32;7.47;;;24.00;99.90;;;;;;5025598;28;20025;-61
2023/06/02 06:49:01;;;;;;;9.30;7.05;;;24.10;99.90;;;;;;5020694;28;20026;-62
2023/06/02 06:51:28;;;;;;;8.23;7.40;;;24.10;99.90;;;;;;5033578;28;20032;-62
2023/06/02 06:53:57;;;;;;;8.82;7.38;;;24.10;99.90;;;;;;5032175;28;20025;-62
2023/06/02 06:56:23;;;;;;;8.77;7.68;;;24.10;99.90;;;;;;5033615;28;20037;-62
2023/06/02 06:58:48;;;;;;;9.63;7.35;;;24.10;99.90;;;;;;5030468;28;20109;-62
2023/06/02 07:01:14;;;;;;;8.85;6.82;;;24.20;99.90;;;;;;5027710;28;20399;-62
2023/06/02 07:03:40;;;;;;;7.85;6.85;;;24.20;99.90;;;;;;5017421;28;20053;-62
2023/06/02 07:06:06;;;;;;;10.02;6.75;;;24.20;99.90;;;;;;5032789;28;20028;-61
2023/06/02 07:08:31;;;;;;;8.43;6.47;;;24.30;99.90;;;;;;5033300;28;20033;-61
2023/06/02 07:10:57;;;;;;;7.95;6.78;;;24.30;99.90;;;;;;5031461;28;20083;-61
2023/06/02 07:13:26;;;;;;;10.77;6.55;;;24.30;99.90;;;;;;5033122;28;20094;-61
2023/06/02 07:15:51;;;;;;;8.20;6.57;;;24.40;99.90;;;;;;5029219;28;20025;-61
2023/06/02 07:18:17;;;;;;;7.72;6.93;;;24.40;99.90;;;;;;5032891;28;20116;-61
2023/06/02 07:20:43;;;;;;;7.22;6.55;;;24.40;99.90;;;;;;5033225;28;20047;-62
2023/06/02 07:23:09;;;;;;;7.03;6.32;;;24.40;99.90;;;;;;5025510;28;20131;-61
2023/06/02 07:25:36;;;;;;;8.73;7.00;;;24.40;99.90;;;;;;5026847;28;20120;-62
2023/06/02 07:28:03;;;;;;;9.02;8.05;;;24.40;99.90;;;;;;5031141;28;20053;-62
2023/06/02 07:30:28;;;;;;;8.30;7.47;;;24.50;99.90;;;;;;5032627;28;20108;-61
2023/06/02 07:32:54;;;;;;;7.32;6.57;;;24.50;99.90;;;;;;5029413;28;20117;-61
2023/06/02 07:35:20;;;;;;;9.43;7.60;;;24.50;99.90;;;;;;5029920;28;20021;-61
2023/06/02 07:37:50;;;;;;;7.53;6.43;;;24.60;99.90;;;;;;5028702;28;20472;-61
2023/06/02 07:40:16;;;;;;;9.07;7.03;;;24.60;99.90;;;;;;5031746;28;20053;-58
2023/06/02 07:42:41;;;;;;;7.00;6.28;;;24.50;99.90;;;;;;5053544;28;20021;-57
2023/06/02 07:45:07;;;;;;;6.90;6.22;;;24.60;99.90;;;;;;5051113;28;20032;-59
2023/06/02 07:47:33;;;;;;;6.93;6.32;;;24.60;99.90;;;;;;5051179;28;20029;-59
2023/06/02 07:49:59;;;;;;;10.32;7.38;;;24.70;99.90;;;;;;5053446;28;20083;-59
2023/06/02 07:52:25;;;;;;;7.93;7.13;;;24.70;99.90;;;;;;5052291;28;20052;-58
2023/06/02 07:54:56;;;;;;;11.50;7.43;;;24.80;99.90;;;;;;5053524;28;20104;-58
2023/06/02 07:57:22;;;;;;;8.63;6.63;;;24.80;99.90;;;;;;5052265;28;20033;-58
2023/06/02 07:59:48;;;;;;;10.13;7.25;;;24.80;99.90;;;;;;5051135;28;20074;-58
2023/06/02 08:02:14;;;;;;;7.05;6.35;;;24.80;99.90;;;;;;5052733;28;20033;-57
2023/06/02 08:04:39;;;;;;;7.18;6.45;;;24.80;99.90;;;;;;5045952;28;20024;-56
2023/06/02 08:07:05;;;;;;;7.97;6.20;;;24.80;99.90;;;;;;5049232;28;20044;-57
2023/06/02 08:09:31;;;;;;;9.38;5.75;;;24.90;99.90;;;;;;5050588;28;20017;-57
2023/06/02 08:11:57;;;;;;;7.32;6.40;;;25.00;99.90;;;;;;5049835;28;20151;-57
2023/06/02 08:14:22;;;;;;;7.95;6.70;;;25.00;99.90;;;;;;5053062;28;20071;-58
2023/06/02 08:16:48;;;;;;;7.85;6.40;;;25.00;99.90;;;;;;5052221;28;20386;-57
2023/06/02 08:19:14;;;;;;;8.32;5.80;;;25.10;99.90;;;;;;5053098;28;20025;-58
2023/06/02 08:21:41;;;;;;;6.90;5.78;;;25.10;99.90;;;;;;5047113;28;20471;-57
2023/06/02 08:24:06;;;;;;;6.60;6.00;;;25.10;99.90;;;;;;5043583;28;20112;-57
2023/06/02 08:26:32;;;;;;;9.20;7.32;;;25.20;99.90;;;;;;5052197;28;20427;-57
2023/06/02 08:28:59;;;;;;;6.72;6.13;;;25.20;99.90;;;;;;5052095;28;20470;-57
2023/06/02 08:31:25;;;;;;;8.07;6.40;;;25.20;99.90;;;;;;5050048;28;20055;-56
2023/06/02 08:33:53;;;;;;;7.82;7.13;;;25.20;99.90;;;;;;5051704;28;20047;-57
2023/06/02 08:36:19;;;;;;;9.98;8.30;;;25.30;99.90;;;;;;5054024;28;20108;-56
2023/06/02 08:38:51;;;;;;;8.40;7.55;;;25.30;99.90;;;;;;5055218;28;20028;-58
2023/06/02 08:41:20;;;;;;;7.47;6.70;;;25.30;99.90;;;;;;5055813;28;20056;-57
2023/06/02 08:43:46;;;;;;;8.40;7.38;;;25.40;99.90;;;;;;5052837;28;20490;-56
2023/06/02 08:46:15;;;;;;;7.65;6.80;;;25.40;99.90;;;;;;5045937;28;20029;-56
2023/06/02 08:48:47;;;;;;;7.82;7.07;;;25.50;99.90;;;;;;5055873;28;20033;-57
2023/06/02 08:51:22;;;;;;;7.15;6.43;;;25.40;99.90;;;;;;5054762;28;20041;-58
2023/06/02 08:53:48;;;;;;;7.22;6.38;;;25.50;99.90;;;;;;5056771;28;20544;-58
2023/06/02 08:56:15;;;;;;;7.57;6.53;;;25.60;99.90;;;;;;5054611;28;20029;-58
2023/06/02 08:58:45;;;;;;;7.93;7.13;;;25.50;99.90;;;;;;5056747;28;20029;-58
2023/06/02 09:01:11;;;;;;;7.95;7.15;;;25.60;99.90;;;;;;5055752;28;20114;-57
2023/06/02 09:03:37;;;;;;;8.45;7.65;;;25.70;99.90;;;;;;5056817;28;20031;-56
2023/06/02 09:06:22;;;;;;;8.57;7.18;;;25.70;99.90;;;;;;5054077;28;20486;-58
2023/06/02 09:08:59;;;;;;;7.32;6.60;;;25.70;99.90;;;;;;5054750;28;20037;-58
2023/06/02 09:11:26;;;;;;;8.07;7.28;;;25.70;99.90;;;;;;5054483;28;20056;-55
2023/06/02 09:13:53;;;;;;;6.55;5.88;;;25.80;99.90;;;;;;5056523;28;20036;-56
2023/06/02 09:16:20;;;;;;;8.43;7.60;;;25.80;99.90;;;;;;5053599;28;20025;-58
2023/06/02 09:18:59;;;;;;;7.38;6.68;;;25.90;99.90;;;;;;5054309;28;20111;-57
2023/06/02 09:21:32;;;;;;;9.55;7.13;;;26.00;99.90;;;;;;5054185;28;20024;-57
2023/06/02 09:23:59;;;;;;;8.55;7.25;;;26.00;99.90;;;;;;5056488;28;20024;-57
2023/06/02 09:26:28;;;;;;;9.27;7.95;;;26.00;99.90;;;;;;5053883;28;20029;-58
2023/06/02 09:29:12;;;;;;;7.30;6.60;;;26.00;99.90;;;;;;5055711;28;20060;-57
2023/06/02 09:31:45;;;;;;;8.43;7.18;;;26.10;99.90;;;;;;5041158;28;20044;-57
2023/06/02 09:34:12;;;;;;;8.93;8.13;;;26.10;99.90;;;;;;5054895;28;20501;-57
2023/06/02 09:36:38;;;;;;;10.88;8.27;;;26.20;99.90;;;;;;5054579;28;20074;-57
2023/06/02 09:39:05;;;;;;;11.20;8.75;;;26.20;99.90;;;;;;5054751;28;20385;-57
2023/06/02 09:41:31;;;;;;;9.80;8.77;;;26.30;99.90;;;;;;5052505;28;20044;-57
2023/06/02 09:43:57;;;;;;;9.55;8.57;;;26.30;99.90;;;;;;5054467;28;20371;-55
2023/06/02 09:46:24;;;;;;;7.90;7.20;;;26.40;99.90;;;;;;5052853;28;20031;-57
2023/06/02 09:48:57;;;;;;;10.00;8.95;;;26.40;99.90;;;;;;5054400;28;20029;-57
2023/06/02 09:51:24;;;;;;;13.23;9.95;;;26.50;99.90;;;;;;5054806;28;20039;-56
2023/06/02 09:53:50;;;;;;;11.82;10.63;;;26.50;99.90;;;;;;5052853;28;20104;-57
2023/06/02 09:56:19;;;;;;;9.70;8.68;;;26.50;99.90;;;;;;5055795;28;20079;-58
2023/06/02 09:58:45;;;;;;;10.07;8.80;;;26.50;99.90;;;;;;5054517;28;20029;-57
2023/06/02 10:01:12;;;;;;;12.57;11.18;;;26.60;99.90;;;;;;5050516;28;20045;-58
2023/06/02 10:03:44;;;;;;;10.10;8.20;;;26.60;99.90;;;;;;5043745;28;20064;-56
2023/06/02 10:06:46;;;;;;;9.07;8.18;;;26.70;99.90;;;;;;5051630;28;20108;-58
2023/06/02 10:09:36;;;;;;;8.38;7.18;;;26.80;99.90;;;;;;5015224;28;20466;-57
2023/06/02 10:12:14;;;;;;;8.88;8.07;;;26.80;99.90;;;;;;5043891;28;20432;-57
2023/06/02 10:15:28;;;;;;;11.50;8.65;;;26.90;99.90;;;;;;5051430;28;20064;-57
2023/06/02 10:18:12;;;;;;;9.10;8.18;;;27.10;99.90;;;;;;5012252;28;20046;-58
2023/06/02 10:21:04;;;;;;;8.73;7.78;;;27.10;99.90;;;;;;5011295;28;20152;-57
2023/06/02 10:24:08;;;;;;;8.80;8.00;;;27.20;99.90;;;;;;5041778;28;20491;-57
2023/06/02 10:27:01;;;;;;;9.20;8.23;;;27.20;99.90;;;;;;5049894;28;20486;-57
2023/06/02 10:29:33;;;;;;;10.80;9.80;;;27.30;99.90;;;;;;5053893;28;20516;-57
2023/06/02 10:32:01;;;;;;;10.95;8.88;;;27.30;99.90;;;;;;5085879;28;20029;-57
2023/06/02 10:34:38;;;;;;;9.45;8.52;;;27.30;99.90;;;;;;5049643;28;20500;-57
2023/06/02 10:37:03;;;;;;;9.30;8.40;;;27.40;99.90;;;;;;5051252;28;20079;-57
2023/06/02 10:39:54;;;;;;;8.85;8.05;;;27.50;99.90;;;;;;5045107;28;20033;-58
2023/06/02 10:42:23;;;;;;;7.43;6.72;;;27.60;99.90;;;;;;5045192;28;20090;-57
2023/06/02 10:44:51;;;;;;;8.88;7.97;;;27.70;99.90;;;;;;5052602;28;20037;-58
2023/06/02 10:47:20;;;;;;;7.32;6.72;;;27.80;99.90;;;;;;5050912;28;20048;-56
2023/06/02 10:49:55;;;;;;;6.68;6.00;;;27.90;99.90;;;;;;5053512;28;20146;-57
2023/06/02 10:52:22;;;;;;;8.35;7.53;;;27.90;99.90;;;;;;5052065;28;20060;-56
2023/06/02 10:55:13;;;;;;;6.63;5.85;;;28.00;99.90;;;;;;5054533;28;20037;-56
2023/06/02 10:57:51;;;;;;;7.68;7.00;;;28.10;99.90;;;;;;5052923;28;20028;-57
2023/06/02 11:00:44;;;;;;;7.78;6.60;;;28.20;99.90;;;;;;5054397;28;20057;-57
2023/06/02 11:03:15;;;;;;;8.73;6.57;;;28.40;99.90;;;;;;5052740;28;20021;-56
2023/06/02 11:05:42;;;;;;;7.80;7.00;;;28.50;99.90;;;;;;5053354;28;20033;-57
2023/06/02 11:08:22;;;;;;;7.68;6.97;;;28.50;99.90;;;;;;5051907;28;20056;-56
2023/06/02 11:10:56;;;;;;;7.22;6.53;;;28.60;99.90;;;;;;5054133;28;20548;-57
2023/06/02 11:13:24;;;;;;;7.70;6.38;;;28.60;99.90;;;;;;5052592;28;20111;-58
2023/06/02 11:15:58;;;;;;;7.15;6.55;;;28.80;99.90;;;;;;5053332;28;20032;-57
2023/06/02 11:18:31;;;;;;;6.53;5.93;;;28.90;99.90;;;;;;5053000;28;20040;-55
2023/06/02 11:21:15;;;;;;;6.57;5.97;;;29.20;99.90;;;;;;5044569;28;20496;-57
2023/06/02 11:23:44;;;;;;;8.40;6.85;;;29.50;99.90;;;;;;5034174;28;20025;-58
2023/06/02 11:26:19;;;;;;;7.45;6.80;;;29.80;99.90;;;;;;5044764;28;20021;-58
2023/06/02 11:28:45;;;;;;;7.07;6.50;;;30.10;99.90;;;;;;5040030;28;20025;-58
2023/06/02 11:31:19;;;;;;;8.07;7.18;;;30.40;99.90;;;;;;5050597;28;20482;-59
2023/06/02 11:33:50;;;;;;;7.70;7.13;;;30.90;99.90;;;;;;5045007;28;20382;-58
2023/06/02 11:36:26;;;;;;;7.57;6.78;;;31.30;99.90;;;;;;5045658;28;20029;-57
2023/06/02 11:39:02;;;;;;;6.93;6.30;;;31.90;99.90;;;;;;5050489;28;20033;-58
2023/06/02 11:41:28;;;;;;;7.90;7.20;;;32.70;99.90;;;;;;5053369;28;20049;-58
2023/06/02 11:47:22;;;;;;;7.20;6.45;;;33.10;99.90;;;;;;5046519;28;20040;-59
2023/06/02 11:49:48;;;;;;;9.13;6.93;;;33.60;99.90;;;;;;5043339;28;20390;-58
2023/06/02 11:52:14;;;;;;;8.73;7.03;;;34.50;99.90;;;;;;5039065;28;20398;-59
2023/06/02 11:54:53;;;;;;;7.70;7.00;;;36.10;99.90;;;;;;5053397;28;20437;-59
2023/06/02 11:57:45;;;;;;;8.27;7.50;;;38.20;99.90;;;;;;5051410;28;20120;-59
2023/06/02 12:00:15;;;;;;;7.63;6.93;;;40.10;99.90;;;;;;5043791;28;20171;-59
2023/06/02 12:02:51;;;;;;;7.35;6.72;;;40.00;99.90;;;;;;5052004;28;20078;-58
2023/06/02 12:05:34;;;;;;;7.65;6.95;;;37.30;99.90;;;;;;5053453;28;20025;-58
2023/06/02 12:08:22;;;;;;;7.78;6.50;;;37.40;99.90;;;;;;5052095;28;20114;-59
2023/06/02 12:10:49;;;;;;;7.53;6.82;;;39.90;99.90;;;;;;5051283;28;20091;-58
2023/06/02 12:16:42;;;;;;;7.38;6.78;;;43.10;99.90;;;;;;5043773;28;20036;-59
2023/06/02 12:19:21;;;;;;;6.78;6.18;;;42.60;99.90;;;;;;5044330;28;20029;-59
2023/06/02 12:21:56;;;;;;;6.85;6.13;;;43.00;99.90;;;;;;5048280;28;20405;-59
2023/06/02 12:24:38;;;;;;;10.70;6.72;;;44.00;99.90;;;;;;5045970;28;20033;-59
2023/06/02 12:27:05;;;;;;;7.85;7.07;;;43.70;99.90;;;;;;5042796;28;20394;-59
2023/06/02 12:29:31;;;;;;;9.60;6.03;;;43.30;99.90;;;;;;5048872;28;20381;-59
2023/06/02 12:32:03;;;;;;;7.78;7.07;;;42.60;99.90;;;;;;5052592;28;20127;-57
2023/06/02 12:34:32;;;;;;;7.85;7.25;;;41.50;99.90;;;;;;5048978;28;20036;-59
2023/06/02 12:36:58;;;;;;;7.28;6.55;;;40.90;99.90;;;;;;5053089;28;20082;-58
2023/06/02 12:39:24;;;;;;;7.53;6.82;;;40.80;99.90;;;;;;5049824;28;20408;-59
2023/06/02 12:41:50;;;;;;;7.40;6.70;;;40.80;99.90;;;;;;5044981;28;20130;-59
2023/06/02 12:44:17;;;;;;;8.15;7.13;;;40.40;99.90;;;;;;5052830;28;20140;-59
2023/06/02 12:46:44;;;;;;;7.13;6.63;;;39.80;99.90;;;;;;5051842;28;20065;-58
2023/06/02 12:49:11;;;;;;;8.35;7.57;;;38.90;99.90;;;;;;5047673;28;20155;-58
2023/06/02 12:51:36;;;;;;;7.18;6.53;;;38.30;99.90;;;;;;5052698;28;20386;-59
2023/06/02 12:54:02;;;;;;;8.10;7.28;;;39.00;99.90;;;;;;5050386;28;20017;-58
2023/06/02 12:56:28;;;;;;;8.45;7.70;;;39.20;99.90;;;;;;5052832;28;20036;-59
2023/06/02 12:58:54;;;;;;;7.50;6.53;;;38.50;99.90;;;;;;5050702;28;20121;-59
2023/06/02 13:01:26;;;;;;;7.05;6.45;;;37.70;99.90;;;;;;5050474;28;20029;-59